sensor_id;sensor_type;location;lat;lon;timestamp;P1;durP1;ratioP1;P2;durP2;ratioP2
36221;SDS011;22266;52.340;4.962;2022-12-24T00:02:14;4.25;;;3.50;;
36221;SDS011;22266;52.340;4.962;2022-12-24T00:04:41;3.25;;;3.25;;
36221;SDS011;22266;52.340;4.962;2022-12-24T00:07:07;8.00;;;4.00;;
36221;SDS011;22266;52.340;4.962;2022-12-24T00:09:34;3.00;;;3.00;;
36221;SDS011;22266;52.340;4.962;2022-12-24T00:12:00;6.75;;;5.00;;
36221;SDS011;22266;52.340;4.962;2022-12-24T00:14:27;5.00;;;2.00;;
36221;SDS011;22266;52.340;4.962;2022-12-24T00:16:53;7.25;;;5.00;;
36221;SDS011;22266;52.340;4.962;2022-12-24T00:19:20;9.75;;;4.00;;
36221;SDS011;22266;52.340;4.962;2022-12-24T00:21:46;7.00;;;6.00;;
36221;SDS011;22266;52.340;4.962;2022-12-24T00:24:12;5.25;;;4.50;;
36221;SDS011;22266;52.340;4.962;2022-12-24T00:26:39;7.00;;;5.00;;
36221;SDS011;22266;52.340;4.962;2022-12-24T00:29:05;4.00;;;2.00;;
36221;SDS011;22266;52.340;4.962;2022-12-24T00:31:32;11.75;;;6.75;;
36221;SDS011;22266;52.340;4.962;2022-12-24T00:33:59;11.25;;;5.75;;
36221;SDS011;22266;52.340;4.962;2022-12-24T00:36:25;4.00;;;2.50;;
36221;SDS011;22266;52.340;4.962;2022-12-24T00:38:52;5.75;;;3.50;;
36221;SDS011;22266;52.340;4.962;2022-12-24T00:41:18;5.50;;;3.00;;
36221;SDS011;22266;52.340;4.962;2022-12-24T00:44:01;10.00;;;3.00;;
36221;SDS011;22266;52.340;4.962;2022-12-24T00:46:32;6.75;;;6.75;;
36221;SDS011;22266;52.340;4.962;2022-12-24T00:49:00;5.00;;;2.25;;
36221;SDS011;22266;52.340;4.962;2022-12-24T00:51:27;4.00;;;1.75;;
36221;SDS011;22266;52.340;4.962;2022-12-24T00:53:54;4.50;;;4.00;;
36221;SDS011;22266;52.340;4.962;2022-12-24T00:56:21;8.25;;;4.00;;
36221;SDS011;22266;52.340;4.962;2022-12-24T00:58:47;6.50;;;5.75;;
36221;SDS011;22266;52.340;4.962;2022-12-24T01:01:14;4.25;;;3.75;;
36221;SDS011;22266;52.340;4.962;2022-12-24T01:03:41;3.00;;;3.00;;
36221;SDS011;22266;52.340;4.962;2022-12-24T01:06:09;4.75;;;4.25;;
36221;SDS011;22266;52.340;4.962;2022-12-24T01:08:38;4.75;;;4.00;;
36221;SDS011;22266;52.340;4.962;2022-12-24T01:11:05;6.50;;;5.00;;
36221;SDS011;22266;52.340;4.962;2022-12-24T01:13:32;7.25;;;3.00;;
36221;SDS011;22266;52.340;4.962;2022-12-24T01:15:59;4.50;;;4.25;;
36221;SDS011;22266;52.340;4.962;2022-12-24T01:18:26;4.00;;;2.00;;
36221;SDS011;22266;52.340;4.962;2022-12-24T01:20:57;7.50;;;4.50;;
36221;SDS011;22266;52.340;4.962;2022-12-24T01:23:25;3.75;;;3.25;;
36221;SDS011;22266;52.340;4.962;2022-12-24T01:25:52;6.75;;;4.50;;
36221;SDS011;22266;52.340;4.962;2022-12-24T01:28:19;4.00;;;1.00;;
36221;SDS011;22266;52.340;4.962;2022-12-24T01:30:47;10.75;;;3.00;;
36221;SDS011;22266;52.340;4.962;2022-12-24T01:33:14;5.25;;;3.25;;
36221;SDS011;22266;52.340;4.962;2022-12-24T01:35:40;3.50;;;3.50;;
36221;SDS011;22266;52.340;4.962;2022-12-24T01:38:08;3.25;;;2.00;;
36221;SDS011;22266;52.340;4.962;2022-12-24T01:40:37;2.00;;;2.00;;
36221;SDS011;22266;52.340;4.962;2022-12-24T01:43:23;5.00;;;5.00;;
36221;SDS011;22266;52.340;4.962;2022-12-24T01:46:03;4.75;;;3.50;;
36221;SDS011;22266;52.340;4.962;2022-12-24T01:48:33;4.75;;;3.25;;
36221;SDS011;22266;52.340;4.962;2022-12-24T01:51:05;5.25;;;3.75;;
36221;SDS011;22266;52.340;4.962;2022-12-24T01:53:33;3.50;;;2.00;;
36221;SDS011;22266;52.340;4.962;2022-12-24T01:56:03;6.75;;;6.50;;
36221;SDS011;22266;52.340;4.962;2022-12-24T01:58:32;7.25;;;3.00;;
36221;SDS011;22266;52.340;4.962;2022-12-24T02:01:04;9.50;;;5.25;;
36221;SDS011;22266;52.340;4.962;2022-12-24T02:03:32;7.25;;;5.00;;
36221;SDS011;22266;52.340;4.962;2022-12-24T02:05:58;3.00;;;2.00;;
36221;SDS011;22266;52.340;4.962;2022-12-24T02:08:26;5.00;;;2.00;;
36221;SDS011;22266;52.340;4.962;2022-12-24T02:11:38;5.25;;;4.00;;
36221;SDS011;22266;52.340;4.962;2022-12-24T02:13:59;4.75;;;3.50;;
36221;SDS011;22266;52.340;4.962;2022-12-24T02:21:54;5.25;;;2.00;;
36221;SDS011;22266;52.340;4.962;2022-12-24T02:24:41;8.75;;;5.00;;
36221;SDS011;22266;52.340;4.962;2022-12-24T02:30:30;6.50;;;6.50;;
36221;SDS011;22266;52.340;4.962;2022-12-24T02:33:07;7.00;;;3.00;;
36221;SDS011;22266;52.340;4.962;2022-12-24T02:35:44;8.00;;;6.25;;
36221;SDS011;22266;52.340;4.962;2022-12-24T02:38:29;7.00;;;4.50;;
36221;SDS011;22266;52.340;4.962;2022-12-24T02:41:05;9.00;;;5.75;;
36221;SDS011;22266;52.340;4.962;2022-12-24T02:43:37;7.00;;;4.25;;
36221;SDS011;22266;52.340;4.962;2022-12-24T02:46:08;6.50;;;4.50;;
36221;SDS011;22266;52.340;4.962;2022-12-24T02:48:39;5.25;;;5.25;;
36221;SDS011;22266;52.340;4.962;2022-12-24T02:51:08;2.00;;;2.00;;
36221;SDS011;22266;52.340;4.962;2022-12-24T02:53:36;5.50;;;5.00;;
36221;SDS011;22266;52.340;4.962;2022-12-24T02:59:12;3.50;;;2.00;;
36221;SDS011;22266;52.340;4.962;2022-12-24T03:02:08;5.75;;;4.50;;
36221;SDS011;22266;52.340;4.962;2022-12-24T03:07:44;4.50;;;4.25;;
36221;SDS011;22266;52.340;4.962;2022-12-24T03:13:09;6.00;;;6.00;;
36221;SDS011;22266;52.340;4.962;2022-12-24T03:15:40;5.00;;;3.00;;
36221;SDS011;22266;52.340;4.962;2022-12-24T03:18:09;4.00;;;4.00;;
36221;SDS011;22266;52.340;4.962;2022-12-24T03:20:38;6.75;;;3.00;;
36221;SDS011;22266;52.340;4.962;2022-12-24T03:23:07;4.00;;;4.00;;
36221;SDS011;22266;52.340;4.962;2022-12-24T03:25:34;2.00;;;2.00;;
36221;SDS011;22266;52.340;4.962;2022-12-24T03:28:05;3.00;;;3.00;;
36221;SDS011;22266;52.340;4.962;2022-12-24T03:30:34;7.50;;;4.00;;
36221;SDS011;22266;52.340;4.962;2022-12-24T03:33:04;4.00;;;4.00;;
36221;SDS011;22266;52.340;4.962;2022-12-24T03:35:30;3.75;;;3.75;;
36221;SDS011;22266;52.340;4.962;2022-12-24T03:37:56;2.00;;;2.00;;
36221;SDS011;22266;52.340;4.962;2022-12-24T03:40:23;6.00;;;5.75;;
36221;SDS011;22266;52.340;4.962;2022-12-24T03:42:49;3.00;;;2.00;;
36221;SDS011;22266;52.340;4.962;2022-12-24T03:45:16;3.25;;;2.00;;
36221;SDS011;22266;52.340;4.962;2022-12-24T03:47:42;3.50;;;3.50;;
36221;SDS011;22266;52.340;4.962;2022-12-24T03:50:08;1.50;;;1.50;;
36221;SDS011;22266;52.340;4.962;2022-12-24T03:52:35;4.50;;;2.00;;
36221;SDS011;22266;52.340;4.962;2022-12-24T03:55:02;3.00;;;2.00;;
36221;SDS011;22266;52.340;4.962;2022-12-24T03:57:28;4.75;;;3.50;;
36221;SDS011;22266;52.340;4.962;2022-12-24T03:59:54;1.00;;;1.00;;
36221;SDS011;22266;52.340;4.962;2022-12-24T04:02:21;5.75;;;2.00;;
36221;SDS011;22266;52.340;4.962;2022-12-24T04:04:48;1.00;;;1.00;;
36221;SDS011;22266;52.340;4.962;2022-12-24T04:07:14;4.00;;;2.00;;
36221;SDS011;22266;52.340;4.962;2022-12-24T04:09:40;5.25;;;5.25;;
36221;SDS011;22266;52.340;4.962;2022-12-24T04:12:07;5.00;;;3.75;;
36221;SDS011;22266;52.340;4.962;2022-12-24T04:14:34;7.25;;;6.25;;
36221;SDS011;22266;52.340;4.962;2022-12-24T04:17:00;1.00;;;0.50;;
36221;SDS011;22266;52.340;4.962;2022-12-24T04:19:27;4.50;;;2.00;;
36221;SDS011;22266;52.340;4.962;2022-12-24T04:21:53;0.25;;;0.25;;
36221;SDS011;22266;52.340;4.962;2022-12-24T04:24:20;2.25;;;2.00;;
36221;SDS011;22266;52.340;4.962;2022-12-24T04:26:46;3.00;;;2.50;;
36221;SDS011;22266;52.340;4.962;2022-12-24T04:29:12;7.25;;;2.75;;
36221;SDS011;22266;52.340;4.962;2022-12-24T04:31:39;3.25;;;2.00;;
36221;SDS011;22266;52.340;4.962;2022-12-24T04:34:05;3.50;;;1.75;;
36221;SDS011;22266;52.340;4.962;2022-12-24T04:36:32;2.00;;;1.00;;
36221;SDS011;22266;52.340;4.962;2022-12-24T04:38:58;2.00;;;1.00;;
36221;SDS011;22266;52.340;4.962;2022-12-24T04:41:25;6.50;;;3.00;;
36221;SDS011;22266;52.340;4.962;2022-12-24T04:43:52;6.75;;;2.25;;
36221;SDS011;22266;52.340;4.962;2022-12-24T04:46:23;5.00;;;5.00;;
36221;SDS011;22266;52.340;4.962;2022-12-24T04:48:53;5.00;;;4.75;;
36221;SDS011;22266;52.340;4.962;2022-12-24T04:51:19;2.00;;;2.00;;
36221;SDS011;22266;52.340;4.962;2022-12-24T04:53:46;4.50;;;4.00;;
36221;SDS011;22266;52.340;4.962;2022-12-24T04:56:14;2.50;;;2.00;;
36221;SDS011;22266;52.340;4.962;2022-12-24T04:58:43;4.00;;;4.00;;
36221;SDS011;22266;52.340;4.962;2022-12-24T05:01:11;4.50;;;2.50;;
36221;SDS011;22266;52.340;4.962;2022-12-24T05:03:39;3.00;;;1.75;;
36221;SDS011;22266;52.340;4.962;2022-12-24T05:06:07;5.00;;;4.00;;
36221;SDS011;22266;52.340;4.962;2022-12-24T05:08:36;4.25;;;1.75;;
36221;SDS011;22266;52.340;4.962;2022-12-24T05:11:03;4.75;;;4.25;;
36221;SDS011;22266;52.340;4.962;2022-12-24T05:13:30;8.50;;;6.00;;
36221;SDS011;22266;52.340;4.962;2022-12-24T05:16:11;5.25;;;3.00;;
36221;SDS011;22266;52.340;4.962;2022-12-24T05:18:39;4.50;;;4.50;;
36221;SDS011;22266;52.340;4.962;2022-12-24T05:21:09;4.00;;;2.00;;
36221;SDS011;22266;52.340;4.962;2022-12-24T05:23:38;2.75;;;2.00;;
36221;SDS011;22266;52.340;4.962;2022-12-24T05:26:26;10.00;;;5.00;;
36221;SDS011;22266;52.340;4.962;2022-12-24T05:28:56;2.00;;;2.00;;
36221;SDS011;22266;52.340;4.962;2022-12-24T05:31:24;2.00;;;2.00;;
36221;SDS011;22266;52.340;4.962;2022-12-24T05:33:52;2.00;;;1.25;;
36221;SDS011;22266;52.340;4.962;2022-12-24T05:36:20;0.75;;;0.25;;
36221;SDS011;22266;52.340;4.962;2022-12-24T05:38:47;5.00;;;3.50;;
36221;SDS011;22266;52.340;4.962;2022-12-24T05:41:14;1.75;;;1.50;;
36221;SDS011;22266;52.340;4.962;2022-12-24T05:43:41;1.25;;;1.25;;
36221;SDS011;22266;52.340;4.962;2022-12-24T05:46:09;2.00;;;2.00;;
36221;SDS011;22266;52.340;4.962;2022-12-24T05:48:38;11.00;;;5.00;;
36221;SDS011;22266;52.340;4.962;2022-12-24T05:51:05;1.00;;;1.00;;
36221;SDS011;22266;52.340;4.962;2022-12-24T05:53:33;5.00;;;4.25;;
36221;SDS011;22266;52.340;4.962;2022-12-24T05:56:01;2.00;;;2.00;;
36221;SDS011;22266;52.340;4.962;2022-12-24T05:58:29;5.50;;;3.00;;
36221;SDS011;22266;52.340;4.962;2022-12-24T06:00:56;5.00;;;2.75;;
36221;SDS011;22266;52.340;4.962;2022-12-24T06:03:23;10.50;;;5.25;;
36221;SDS011;22266;52.340;4.962;2022-12-24T06:05:56;4.25;;;3.00;;
36221;SDS011;22266;52.340;4.962;2022-12-24T06:08:24;5.50;;;4.50;;
36221;SDS011;22266;52.340;4.962;2022-12-24T06:10:58;7.25;;;2.25;;
36221;SDS011;22266;52.340;4.962;2022-12-24T06:13:26;6.25;;;5.00;;
36221;SDS011;22266;52.340;4.962;2022-12-24T06:15:56;6.50;;;5.00;;
36221;SDS011;22266;52.340;4.962;2022-12-24T06:18:24;5.25;;;4.25;;
36221;SDS011;22266;52.340;4.962;2022-12-24T06:20:54;3.50;;;3.00;;
36221;SDS011;22266;52.340;4.962;2022-12-24T06:23:22;1.00;;;1.00;;
36221;SDS011;22266;52.340;4.962;2022-12-24T06:25:49;6.00;;;3.50;;
36221;SDS011;22266;52.340;4.962;2022-12-24T06:28:16;4.00;;;2.00;;
36221;SDS011;22266;52.340;4.962;2022-12-24T06:30:47;6.25;;;4.25;;
36221;SDS011;22266;52.340;4.962;2022-12-24T06:33:17;10.00;;;6.00;;
36221;SDS011;22266;52.340;4.962;2022-12-24T06:35:44;4.75;;;4.00;;
36221;SDS011;22266;52.340;4.962;2022-12-24T06:38:12;4.50;;;4.00;;
36221;SDS011;22266;52.340;4.962;2022-12-24T06:40:40;6.00;;;4.00;;
36221;SDS011;22266;52.340;4.962;2022-12-24T06:43:08;3.00;;;1.00;;
36221;SDS011;22266;52.340;4.962;2022-12-24T06:45:35;5.00;;;3.25;;
36221;SDS011;22266;52.340;4.962;2022-12-24T06:48:02;9.75;;;4.75;;
36221;SDS011;22266;52.340;4.962;2022-12-24T06:50:28;5.50;;;5.50;;
36221;SDS011;22266;52.340;4.962;2022-12-24T06:52:55;7.00;;;4.00;;
36221;SDS011;22266;52.340;4.962;2022-12-24T06:55:21;3.25;;;3.25;;
36221;SDS011;22266;52.340;4.962;2022-12-24T06:57:48;2.25;;;2.25;;
36221;SDS011;22266;52.340;4.962;2022-12-24T07:00:14;5.75;;;3.00;;
36221;SDS011;22266;52.340;4.962;2022-12-24T07:02:41;2.00;;;2.00;;
36221;SDS011;22266;52.340;4.962;2022-12-24T07:05:09;6.50;;;2.75;;
36221;SDS011;22266;52.340;4.962;2022-12-24T07:07:37;1.75;;;1.75;;
36221;SDS011;22266;52.340;4.962;2022-12-24T07:10:06;5.00;;;3.75;;
36221;SDS011;22266;52.340;4.962;2022-12-24T07:12:33;1.75;;;1.75;;
36221;SDS011;22266;52.340;4.962;2022-12-24T07:15:00;5.75;;;4.75;;
36221;SDS011;22266;52.340;4.962;2022-12-24T07:17:27;4.25;;;2.00;;
36221;SDS011;22266;52.340;4.962;2022-12-24T07:19:53;7.25;;;3.00;;
36221;SDS011;22266;52.340;4.962;2022-12-24T07:22:20;5.75;;;3.00;;
36221;SDS011;22266;52.340;4.962;2022-12-24T07:24:46;4.50;;;3.50;;
36221;SDS011;22266;52.340;4.962;2022-12-24T07:27:13;6.25;;;3.25;;
36221;SDS011;22266;52.340;4.962;2022-12-24T07:29:39;5.25;;;3.00;;
36221;SDS011;22266;52.340;4.962;2022-12-24T07:32:06;10.00;;;5.00;;
36221;SDS011;22266;52.340;4.962;2022-12-24T07:34:33;6.50;;;3.50;;
36221;SDS011;22266;52.340;4.962;2022-12-24T07:37:00;9.25;;;4.50;;
36221;SDS011;22266;52.340;4.962;2022-12-24T07:39:26;4.75;;;2.25;;
36221;SDS011;22266;52.340;4.962;2022-12-24T07:41:53;5.25;;;2.75;;
36221;SDS011;22266;52.340;4.962;2022-12-24T07:44:19;2.50;;;2.25;;
36221;SDS011;22266;52.340;4.962;2022-12-24T07:46:46;4.75;;;2.00;;
36221;SDS011;22266;52.340;4.962;2022-12-24T07:49:12;7.75;;;4.50;;
36221;SDS011;22266;52.340;4.962;2022-12-24T07:51:39;10.00;;;5.00;;
36221;SDS011;22266;52.340;4.962;2022-12-24T07:54:05;7.25;;;4.00;;
36221;SDS011;22266;52.340;4.962;2022-12-24T07:56:32;5.00;;;5.00;;
36221;SDS011;22266;52.340;4.962;2022-12-24T07:58:59;2.00;;;2.00;;
36221;SDS011;22266;52.340;4.962;2022-12-24T08:01:25;4.25;;;4.00;;
36221;SDS011;22266;52.340;4.962;2022-12-24T08:03:52;4.75;;;4.75;;
36221;SDS011;22266;52.340;4.962;2022-12-24T08:06:20;8.50;;;5.00;;
36221;SDS011;22266;52.340;4.962;2022-12-24T08:08:47;6.25;;;4.75;;
36221;SDS011;22266;52.340;4.962;2022-12-24T08:11:14;6.50;;;4.50;;
36221;SDS011;22266;52.340;4.962;2022-12-24T08:13:41;2.50;;;2.50;;
36221;SDS011;22266;52.340;4.962;2022-12-24T08:16:08;10.75;;;6.25;;
36221;SDS011;22266;52.340;4.962;2022-12-24T08:18:34;5.75;;;2.00;;
36221;SDS011;22266;52.340;4.962;2022-12-24T08:21:01;5.00;;;2.25;;
36221;SDS011;22266;52.340;4.962;2022-12-24T08:23:27;5.75;;;5.00;;
36221;SDS011;22266;52.340;4.962;2022-12-24T08:25:54;7.50;;;1.75;;
36221;SDS011;22266;52.340;4.962;2022-12-24T08:28:20;5.25;;;2.00;;
36221;SDS011;22266;52.340;4.962;2022-12-24T08:30:47;2.50;;;1.75;;
36221;SDS011;22266;52.340;4.962;2022-12-24T08:33:16;4.25;;;2.50;;
36221;SDS011;22266;52.340;4.962;2022-12-24T08:35:46;8.00;;;4.00;;
36221;SDS011;22266;52.340;4.962;2022-12-24T08:38:16;10.75;;;8.00;;
36221;SDS011;22266;52.340;4.962;2022-12-24T08:40:43;5.25;;;2.00;;
36221;SDS011;22266;52.340;4.962;2022-12-24T08:43:10;2.25;;;2.00;;
36221;SDS011;22266;52.340;4.962;2022-12-24T08:45:37;5.00;;;1.50;;
36221;SDS011;22266;52.340;4.962;2022-12-24T08:48:06;7.00;;;4.50;;
36221;SDS011;22266;52.340;4.962;2022-12-24T08:50:34;5.25;;;1.00;;
36221;SDS011;22266;52.340;4.962;2022-12-24T08:53:03;4.50;;;2.50;;
36221;SDS011;22266;52.340;4.962;2022-12-24T08:55:30;4.25;;;2.00;;
36221;SDS011;22266;52.340;4.962;2022-12-24T08:57:56;6.50;;;2.00;;
36221;SDS011;22266;52.340;4.962;2022-12-24T09:00:23;5.00;;;1.50;;
36221;SDS011;22266;52.340;4.962;2022-12-24T09:02:50;5.00;;;4.00;;
36221;SDS011;22266;52.340;4.962;2022-12-24T09:05:16;7.25;;;3.00;;
36221;SDS011;22266;52.340;4.962;2022-12-24T09:07:43;4.25;;;3.00;;
36221;SDS011;22266;52.340;4.962;2022-12-24T09:10:09;4.50;;;4.50;;
36221;SDS011;22266;52.340;4.962;2022-12-24T09:12:36;6.75;;;5.00;;
36221;SDS011;22266;52.340;4.962;2022-12-24T09:15:03;7.50;;;4.00;;
36221;SDS011;22266;52.340;4.962;2022-12-24T09:17:33;8.50;;;2.75;;
36221;SDS011;22266;52.340;4.962;2022-12-24T09:20:01;8.75;;;2.00;;
36221;SDS011;22266;52.340;4.962;2022-12-24T09:22:29;5.75;;;4.75;;
36221;SDS011;22266;52.340;4.962;2022-12-24T09:24:55;2.00;;;2.00;;
36221;SDS011;22266;52.340;4.962;2022-12-24T09:27:21;4.50;;;2.00;;
36221;SDS011;22266;52.340;4.962;2022-12-24T09:29:48;9.25;;;4.50;;
36221;SDS011;22266;52.340;4.962;2022-12-24T09:32:15;4.25;;;3.75;;
36221;SDS011;22266;52.340;4.962;2022-12-24T09:34:41;8.00;;;5.50;;
36221;SDS011;22266;52.340;4.962;2022-12-24T09:37:08;7.75;;;3.00;;
36221;SDS011;22266;52.340;4.962;2022-12-24T09:39:34;3.25;;;3.25;;
36221;SDS011;22266;52.340;4.962;2022-12-24T09:42:19;6.50;;;4.00;;
36221;SDS011;22266;52.340;4.962;2022-12-24T09:45:04;9.00;;;4.00;;
36221;SDS011;22266;52.340;4.962;2022-12-24T09:47:40;5.50;;;2.50;;
36221;SDS011;22266;52.340;4.962;2022-12-24T09:53:12;6.50;;;4.25;;
36221;SDS011;22266;52.340;4.962;2022-12-24T09:55:46;10.00;;;2.50;;
36221;SDS011;22266;52.340;4.962;2022-12-24T09:58:24;11.00;;;4.00;;
36221;SDS011;22266;52.340;4.962;2022-12-24T10:01:13;7.75;;;7.50;;
36221;SDS011;22266;52.340;4.962;2022-12-24T10:03:42;2.00;;;2.00;;
36221;SDS011;22266;52.340;4.962;2022-12-24T10:11:16;5.00;;;3.50;;
36221;SDS011;22266;52.340;4.962;2022-12-24T10:13:53;3.75;;;3.25;;
36221;SDS011;22266;52.340;4.962;2022-12-24T10:16:25;4.75;;;2.25;;
36221;SDS011;22266;52.340;4.962;2022-12-24T10:19:00;4.75;;;3.75;;
36221;SDS011;22266;52.340;4.962;2022-12-24T10:21:36;7.00;;;2.50;;
36221;SDS011;22266;52.340;4.962;2022-12-24T10:24:36;2.25;;;2.25;;
36221;SDS011;22266;52.340;4.962;2022-12-24T10:27:16;1.00;;;1.00;;
36221;SDS011;22266;52.340;4.962;2022-12-24T10:29:51;5.75;;;5.00;;
36221;SDS011;22266;52.340;4.962;2022-12-24T10:32:31;7.25;;;4.00;;
36221;SDS011;22266;52.340;4.962;2022-12-24T10:35:22;3.25;;;2.50;;
36221;SDS011;22266;52.340;4.962;2022-12-24T10:37:51;4.00;;;3.50;;
36221;SDS011;22266;52.340;4.962;2022-12-24T10:43:13;2.75;;;2.75;;
36221;SDS011;22266;52.340;4.962;2022-12-24T10:45:43;4.00;;;2.00;;
36221;SDS011;22266;52.340;4.962;2022-12-24T10:48:26;7.25;;;2.50;;
36221;SDS011;22266;52.340;4.962;2022-12-24T10:50:59;5.25;;;3.00;;
36221;SDS011;22266;52.340;4.962;2022-12-24T10:56:08;5.25;;;2.00;;
36221;SDS011;22266;52.340;4.962;2022-12-24T10:58:44;4.25;;;2.25;;
36221;SDS011;22266;52.340;4.962;2022-12-24T11:01:16;5.50;;;4.75;;
36221;SDS011;22266;52.340;4.962;2022-12-24T11:03:43;6.25;;;4.00;;
36221;SDS011;22266;52.340;4.962;2022-12-24T11:08:41;2.00;;;1.75;;
36221;SDS011;22266;52.340;4.962;2022-12-24T11:11:13;7.50;;;2.00;;
36221;SDS011;22266;52.340;4.962;2022-12-24T11:14:00;4.00;;;4.00;;
36221;SDS011;22266;52.340;4.962;2022-12-24T11:16:27;2.00;;;2.00;;
36221;SDS011;22266;52.340;4.962;2022-12-24T11:18:58;3.75;;;2.00;;
36221;SDS011;22266;52.340;4.962;2022-12-24T11:21:29;4.00;;;2.75;;
36221;SDS011;22266;52.340;4.962;2022-12-24T11:24:04;2.00;;;2.00;;
36221;SDS011;22266;52.340;4.962;2022-12-24T11:26:40;1.00;;;1.00;;
36221;SDS011;22266;52.340;4.962;2022-12-24T11:29:12;4.00;;;4.00;;
36221;SDS011;22266;52.340;4.962;2022-12-24T11:31:47;1.50;;;1.25;;
36221;SDS011;22266;52.340;4.962;2022-12-24T11:34:22;4.25;;;4.00;;
36221;SDS011;22266;52.340;4.962;2022-12-24T11:36:52;3.00;;;1.75;;
36221;SDS011;22266;52.340;4.962;2022-12-24T11:39:23;3.00;;;1.00;;
36221;SDS011;22266;52.340;4.962;2022-12-24T11:41:51;9.00;;;2.00;;
36221;SDS011;22266;52.340;4.962;2022-12-24T11:44:22;1.75;;;1.75;;
36221;SDS011;22266;52.340;4.962;2022-12-24T11:46:51;1.00;;;1.00;;
36221;SDS011;22266;52.340;4.962;2022-12-24T11:49:29;2.00;;;2.00;;
36221;SDS011;22266;52.340;4.962;2022-12-24T11:52:03;2.00;;;1.50;;
36221;SDS011;22266;52.340;4.962;2022-12-24T11:57:14;2.25;;;1.50;;
36221;SDS011;22266;52.340;4.962;2022-12-24T11:59:46;1.50;;;1.00;;
36221;SDS011;22266;52.340;4.962;2022-12-24T12:04:50;5.50;;;3.75;;
36221;SDS011;22266;52.340;4.962;2022-12-24T12:07:29;8.25;;;4.75;;
36221;SDS011;22266;52.340;4.962;2022-12-24T12:12:32;2.25;;;2.00;;
36221;SDS011;22266;52.340;4.962;2022-12-24T12:15:09;1.00;;;1.00;;
36221;SDS011;22266;52.340;4.962;2022-12-24T12:17:53;5.00;;;4.25;;
36221;SDS011;22266;52.340;4.962;2022-12-24T12:20:24;3.00;;;3.00;;
36221;SDS011;22266;52.340;4.962;2022-12-24T12:28:21;2.00;;;0.75;;
36221;SDS011;22266;52.340;4.962;2022-12-24T12:33:54;4.00;;;2.00;;
36221;SDS011;22266;52.340;4.962;2022-12-24T12:36:29;3.50;;;1.50;;
36221;SDS011;22266;52.340;4.962;2022-12-24T12:39:07;3.75;;;2.00;;
36221;SDS011;22266;52.340;4.962;2022-12-24T12:47:25;5.50;;;2.00;;
36221;SDS011;22266;52.340;4.962;2022-12-24T12:55:15;6.75;;;3.00;;
36221;SDS011;22266;52.340;4.962;2022-12-24T12:58:12;4.25;;;4.25;;
36221;SDS011;22266;52.340;4.962;2022-12-24T13:00:45;3.00;;;1.75;;
36221;SDS011;22266;52.340;4.962;2022-12-24T13:03:35;1.75;;;1.00;;
36221;SDS011;22266;52.340;4.962;2022-12-24T13:06:33;2.00;;;0.00;;
36221;SDS011;22266;52.340;4.962;2022-12-24T13:12:09;2.75;;;1.25;;
36221;SDS011;22266;52.340;4.962;2022-12-24T13:22:53;1.50;;;1.25;;
36221;SDS011;22266;52.340;4.962;2022-12-24T13:25:40;4.25;;;2.00;;
36221;SDS011;22266;52.340;4.962;2022-12-24T13:30:49;7.25;;;3.00;;
36221;SDS011;22266;52.340;4.962;2022-12-24T13:36:06;4.75;;;4.75;;
36221;SDS011;22266;52.340;4.962;2022-12-24T13:46:56;7.00;;;1.00;;
36221;SDS011;22266;52.340;4.962;2022-12-24T13:49:37;2.00;;;0.00;;
36221;SDS011;22266;52.340;4.962;2022-12-24T13:54:39;10.00;;;3.00;;
36221;SDS011;22266;52.340;4.962;2022-12-24T13:59:59;4.50;;;1.00;;
36221;SDS011;22266;52.340;4.962;2022-12-24T14:02:47;1.25;;;0.50;;
36221;SDS011;22266;52.340;4.962;2022-12-24T14:05:31;1.50;;;1.00;;
36221;SDS011;22266;52.340;4.962;2022-12-24T14:08:03;0.75;;;0.50;;
36221;SDS011;22266;52.340;4.962;2022-12-24T14:10:41;4.00;;;2.00;;
36221;SDS011;22266;52.340;4.962;2022-12-24T14:18:58;2.00;;;2.00;;
36221;SDS011;22266;52.340;4.962;2022-12-24T14:21:25;2.50;;;1.25;;
36221;SDS011;22266;52.340;4.962;2022-12-24T14:23:57;11.00;;;3.50;;
36221;SDS011;22266;52.340;4.962;2022-12-24T14:26:35;5.00;;;5.00;;
36221;SDS011;22266;52.340;4.962;2022-12-24T14:31:51;1.00;;;1.00;;
36221;SDS011;22266;52.340;4.962;2022-12-24T14:34:19;2.25;;;2.00;;
36221;SDS011;22266;52.340;4.962;2022-12-24T14:36:46;4.50;;;2.50;;
36221;SDS011;22266;52.340;4.962;2022-12-24T14:39:19;4.75;;;3.50;;
36221;SDS011;22266;52.340;4.962;2022-12-24T14:44:48;8.25;;;3.00;;
36221;SDS011;22266;52.340;4.962;2022-12-24T14:47:44;7.25;;;4.75;;
36221;SDS011;22266;52.340;4.962;2022-12-24T14:53:18;6.50;;;5.00;;
36221;SDS011;22266;52.340;4.962;2022-12-24T14:55:53;8.00;;;7.25;;
36221;SDS011;22266;52.340;4.962;2022-12-24T14:58:26;5.50;;;5.25;;
36221;SDS011;22266;52.340;4.962;2022-12-24T15:00:57;4.00;;;4.00;;
36221;SDS011;22266;52.340;4.962;2022-12-24T15:03:27;1.00;;;1.00;;
36221;SDS011;22266;52.340;4.962;2022-12-24T15:05:58;2.75;;;1.75;;
36221;SDS011;22266;52.340;4.962;2022-12-24T15:08:32;5.00;;;3.50;;
36221;SDS011;22266;52.340;4.962;2022-12-24T15:11:06;0.25;;;0.25;;
36221;SDS011;22266;52.340;4.962;2022-12-24T15:13:36;5.00;;;5.00;;
36221;SDS011;22266;52.340;4.962;2022-12-24T15:16:09;9.00;;;5.75;;
36221;SDS011;22266;52.340;4.962;2022-12-24T15:18:40;6.25;;;5.75;;
36221;SDS011;22266;52.340;4.962;2022-12-24T15:21:15;5.00;;;5.00;;
36221;SDS011;22266;52.340;4.962;2022-12-24T15:23:48;1.25;;;1.00;;
36221;SDS011;22266;52.340;4.962;2022-12-24T15:26:26;4.25;;;2.50;;
36221;SDS011;22266;52.340;4.962;2022-12-24T15:28:55;2.50;;;2.25;;
36221;SDS011;22266;52.340;4.962;2022-12-24T15:31:28;1.50;;;1.50;;
36221;SDS011;22266;52.340;4.962;2022-12-24T15:33:56;2.00;;;2.00;;
36221;SDS011;22266;52.340;4.962;2022-12-24T15:38:54;7.75;;;6.50;;
36221;SDS011;22266;52.340;4.962;2022-12-24T15:41:23;7.25;;;7.25;;
36221;SDS011;22266;52.340;4.962;2022-12-24T15:43:58;9.00;;;7.75;;
36221;SDS011;22266;52.340;4.962;2022-12-24T15:46:27;12.00;;;9.25;;
36221;SDS011;22266;52.340;4.962;2022-12-24T15:48:56;9.75;;;8.75;;
36221;SDS011;22266;52.340;4.962;2022-12-24T15:51:26;7.50;;;6.00;;
36221;SDS011;22266;52.340;4.962;2022-12-24T15:53:57;5.50;;;5.50;;
36221;SDS011;22266;52.340;4.962;2022-12-24T16:01:43;4.75;;;4.75;;
36221;SDS011;22266;52.340;4.962;2022-12-24T16:04:21;5.75;;;4.25;;
36221;SDS011;22266;52.340;4.962;2022-12-24T16:06:53;6.00;;;5.00;;
36221;SDS011;22266;52.340;4.962;2022-12-24T16:11:57;11.00;;;6.00;;
36221;SDS011;22266;52.340;4.962;2022-12-24T16:14:29;9.25;;;7.75;;
36221;SDS011;22266;52.340;4.962;2022-12-24T16:16:57;9.25;;;7.00;;
36221;SDS011;22266;52.340;4.962;2022-12-24T16:19:28;7.50;;;7.50;;
36221;SDS011;22266;52.340;4.962;2022-12-24T16:22:05;17.00;;;15.00;;
36221;SDS011;22266;52.340;4.962;2022-12-24T16:24:50;23.25;;;18.00;;
36221;SDS011;22266;52.340;4.962;2022-12-24T16:27:20;16.50;;;14.25;;
36221;SDS011;22266;52.340;4.962;2022-12-24T16:29:47;9.25;;;9.00;;
36221;SDS011;22266;52.340;4.962;2022-12-24T16:32:32;9.75;;;8.50;;
36221;SDS011;22266;52.340;4.962;2022-12-24T16:35:01;11.00;;;9.25;;
36221;SDS011;22266;52.340;4.962;2022-12-24T16:37:30;11.25;;;9.50;;
36221;SDS011;22266;52.340;4.962;2022-12-24T16:39:57;8.25;;;5.00;;
36221;SDS011;22266;52.340;4.962;2022-12-24T16:42:24;12.75;;;10.00;;
36221;SDS011;22266;52.340;4.962;2022-12-24T16:45:09;10.00;;;7.50;;
36221;SDS011;22266;52.340;4.962;2022-12-24T16:47:36;14.25;;;9.00;;
36221;SDS011;22266;52.340;4.962;2022-12-24T16:50:10;9.00;;;9.00;;
36221;SDS011;22266;52.340;4.962;2022-12-24T16:52:41;7.00;;;7.00;;
36221;SDS011;22266;52.340;4.962;2022-12-24T16:55:08;10.75;;;9.00;;
36221;SDS011;22266;52.340;4.962;2022-12-24T16:57:38;16.50;;;10.75;;
36221;SDS011;22266;52.340;4.962;2022-12-24T17:00:06;17.75;;;15.50;;
36221;SDS011;22266;52.340;4.962;2022-12-24T17:02:34;13.00;;;9.00;;